createdAt,value
2022-08-26T00:08:21.607Z,4.93
2022-08-26T00:18:22.952Z,4.50
2022-08-26T00:28:24.316Z,5.10
2022-08-26T00:38:26.109Z,5.40
2022-08-26T00:48:31.856Z,5.22
2022-08-26T00:58:34.187Z,5.22
2022-08-26T01:08:35.520Z,5.43
2022-08-26T01:18:36.900Z,5.70
2022-08-26T01:28:38.462Z,6.05
2022-08-26T01:38:42.125Z,5.63
2022-08-26T01:48:43.653Z,5.47
2022-08-26T01:58:45.311Z,6.15
2022-08-26T02:08:46.653Z,5.65
2022-08-26T02:18:48.040Z,6.20
2022-08-26T02:28:49.466Z,6.43
2022-08-26T02:38:50.797Z,6.35
2022-08-26T02:48:53.472Z,6.10
2022-08-26T02:58:55.218Z,6.30
2022-08-26T03:08:56.582Z,6.55
2022-08-26T03:18:58.043Z,6.32
2022-08-26T03:29:19.182Z,5.60
2022-08-26T03:39:20.583Z,6.07
2022-08-26T03:49:22.843Z,5.97
2022-08-26T03:59:24.253Z,6.68
2022-08-26T04:09:26.184Z,6.55
2022-08-26T04:19:28.026Z,6.93
2022-08-26T04:29:29.421Z,7.28
2022-08-26T04:39:30.795Z,6.72
2022-08-26T04:49:35.240Z,5.80
2022-08-26T04:59:39.340Z,6.77
2022-08-26T05:09:40.943Z,7.27
2022-08-26T05:19:43.010Z,6.65
2022-08-26T05:29:44.475Z,7.00
2022-08-26T05:39:51.218Z,7.07
2022-08-26T05:49:53.056Z,7.35
2022-08-26T05:59:54.430Z,7.68
2022-08-26T06:10:09.971Z,6.63
2022-08-26T06:20:17.218Z,6.80
2022-08-26T06:30:18.697Z,7.10
2022-08-26T06:40:22.673Z,6.47
2022-08-26T06:50:24.408Z,7.53
2022-08-26T07:00:26.366Z,6.80
2022-08-26T07:10:27.797Z,6.43
2022-08-26T07:20:29.075Z,6.28
2022-08-26T07:30:30.430Z,6.07
2022-08-26T07:40:32.058Z,6.88
2022-08-26T07:50:49.375Z,7.63
2022-08-26T08:00:51.783Z,9.93
2022-08-26T08:10:55.192Z,7.85
2022-08-26T08:21:10.800Z,9.18
2022-08-26T08:31:21.600Z,7.35
2022-08-26T08:41:29.888Z,7.10
2022-08-26T08:51:31.575Z,8.30
2022-08-26T09:01:35.217Z,6.47
2022-08-26T09:21:38.358Z,7.45
2022-08-26T09:31:41.404Z,6.72
2022-08-26T09:41:42.735Z,6.88
2022-08-26T09:51:44.595Z,7.78
2022-08-26T10:01:53.161Z,9.18
2022-08-26T10:11:54.686Z,7.75
2022-08-26T10:21:56.067Z,7.57
2022-08-26T10:31:58.797Z,7.55
2022-08-26T10:42:05.189Z,6.00
2022-08-26T10:52:12.391Z,7.53
2022-08-26T11:02:21.521Z,5.70
2022-08-26T11:12:26.048Z,5.68
2022-08-26T11:22:27.327Z,5.78
2022-08-26T11:32:28.680Z,6.38
2022-08-26T11:42:30.037Z,7.20
2022-08-26T11:52:31.370Z,6.43
2022-08-26T12:02:33.868Z,5.97
2022-08-26T12:12:37.354Z,5.90
2022-08-26T12:22:38.933Z,5.82
2022-08-26T12:32:57.311Z,5.75
2022-08-26T12:43:00.429Z,5.45
2022-08-26T12:53:01.739Z,5.60
2022-08-26T13:03:06.399Z,5.13
2022-08-26T13:13:07.975Z,5.30
2022-08-26T13:23:09.584Z,5.25
2022-08-26T13:33:12.267Z,5.13
2022-08-26T13:43:15.893Z,5.07
2022-08-26T13:53:17.375Z,4.72
2022-08-26T14:03:18.706Z,5.57
2022-08-26T14:13:20.201Z,5.55
2022-08-26T14:23:22.725Z,5.25
2022-08-26T14:33:24.367Z,6.17
2022-08-26T14:43:26.209Z,5.82
2022-08-26T14:53:46.203Z,5.80
2022-08-26T15:03:47.554Z,8.32
2022-08-26T15:13:48.881Z,7.95
2022-08-26T15:23:50.221Z,6.75
2022-08-26T15:33:52.642Z,6.25
2022-08-26T15:43:53.987Z,5.95
2022-08-26T15:53:58.604Z,5.25
2022-08-26T16:03:59.967Z,5.22
2022-08-26T16:14:01.319Z,5.20
2022-08-26T16:24:03.370Z,5.50
2022-08-26T16:34:04.765Z,6.20
2022-08-26T16:44:06.132Z,7.60
2022-08-26T16:54:07.771Z,8.40
2022-08-26T17:04:09.158Z,8.18
2022-08-26T17:14:10.473Z,5.70
2022-08-26T17:24:11.773Z,5.07
2022-08-26T17:34:13.149Z,4.82
2022-08-26T17:44:14.490Z,5.10
2022-08-26T17:54:15.804Z,6.05
2022-08-26T18:04:17.617Z,6.60
2022-08-26T18:14:19.135Z,7.15
2022-08-26T18:24:20.459Z,8.15
2022-08-26T18:34:21.780Z,9.52
2022-08-26T18:44:26.185Z,9.32
2022-08-26T18:54:27.503Z,9.45
2022-08-26T19:04:28.812Z,9.30
2022-08-26T19:14:30.178Z,9.13
2022-08-26T19:24:31.567Z,10.02
2022-08-26T19:34:32.916Z,9.75
2022-08-26T19:44:53.019Z,11.18
2022-08-26T19:54:54.280Z,10.23
2022-08-26T20:04:55.686Z,9.43
2022-08-26T20:14:56.955Z,9.65
2022-08-26T20:24:58.324Z,9.80
2022-08-26T20:35:00.896Z,9.68
2022-08-26T20:45:02.667Z,9.55
2022-08-26T20:55:03.980Z,9.38
2022-08-26T21:05:05.456Z,9.93
2022-08-26T21:15:07.354Z,12.02
2022-08-26T21:25:08.688Z,12.43
2022-08-26T21:35:10.015Z,7.70
2022-08-26T21:45:11.358Z,8.25
2022-08-26T21:55:12.720Z,13.63
2022-08-26T22:05:14.067Z,13.93
2022-08-26T22:15:15.840Z,15.27
2022-08-26T22:25:17.190Z,33.83
2022-08-26T22:35:28.716Z,35.75
2022-08-26T22:45:32.147Z,42.45
2022-08-26T22:55:33.509Z,43.15
2022-08-26T23:05:34.888Z,40.10
2022-08-26T23:15:36.298Z,42.67
2022-08-26T23:25:37.657Z,44.13
2022-08-26T23:35:38.979Z,38.95
2022-08-26T23:45:42.916Z,38.30
2022-08-26T23:55:44.304Z,38.92
